createdAt,value
2018-06-02T00:00:23.429Z,18.00
2018-06-02T00:02:49.636Z,17.90
2018-06-02T00:05:15.894Z,17.90
2018-06-02T00:07:42.147Z,17.80
2018-06-02T00:10:08.387Z,17.70
2018-06-02T00:12:34.695Z,17.60
2018-06-02T00:15:00.946Z,17.50
2018-06-02T00:17:27.175Z,17.50
2018-06-02T00:19:53.419Z,17.40
2018-06-02T00:22:19.711Z,17.40
2018-06-02T00:24:46.003Z,17.40
2018-06-02T00:27:12.248Z,17.40
2018-06-02T00:29:38.489Z,17.50
2018-06-02T00:32:04.751Z,17.50
2018-06-02T00:34:30.976Z,17.40
2018-06-02T00:36:57.256Z,17.40
2018-06-02T00:39:23.491Z,17.40
2018-06-02T00:41:49.808Z,17.40
2018-06-02T00:44:16.116Z,17.30
2018-06-02T00:46:42.372Z,17.30
2018-06-02T00:49:08.612Z,17.30
2018-06-02T00:51:34.854Z,17.30
2018-06-02T00:54:01.180Z,17.30
2018-06-02T00:56:27.460Z,17.30
2018-06-02T00:58:53.806Z,17.50
2018-06-02T01:01:20.078Z,17.50
2018-06-02T01:03:46.374Z,17.50
2018-06-02T01:06:13.358Z,17.50
2018-06-02T01:08:39.758Z,17.50
2018-06-02T01:11:06.037Z,17.50
2018-06-02T01:13:32.280Z,17.60
2018-06-02T01:15:58.548Z,17.60
2018-06-02T01:18:24.826Z,17.70
2018-06-02T01:20:51.130Z,17.70
2018-06-02T01:23:17.338Z,17.70
2018-06-02T01:25:43.654Z,17.80
2018-06-02T01:28:09.908Z,17.80
2018-06-02T01:30:36.900Z,17.80
2018-06-02T01:33:03.779Z,18.10
2018-06-02T01:35:29.987Z,17.90
2018-06-02T01:37:56.212Z,17.90
2018-06-02T01:40:22.544Z,17.90
2018-06-02T01:42:48.831Z,18.00
2018-06-02T01:45:15.099Z,18.00
2018-06-02T01:47:41.427Z,18.00
2018-06-02T01:50:07.704Z,18.00
2018-06-02T01:52:33.953Z,18.00
2018-06-02T01:55:00.203Z,18.00
2018-06-02T01:57:26.500Z,18.00
2018-06-02T01:59:52.790Z,18.00
2018-06-02T02:02:19.104Z,17.70
2018-06-02T02:04:45.401Z,18.00
2018-06-02T02:07:11.646Z,18.00
2018-06-02T02:09:37.875Z,18.10
2018-06-02T02:12:04.866Z,18.10
2018-06-02T02:14:31.163Z,18.00
2018-06-02T02:16:58.151Z,18.10
2018-06-02T02:19:24.415Z,18.10
2018-06-02T02:21:50.635Z,18.10
2018-06-02T02:24:16.908Z,18.20
2018-06-02T02:26:43.138Z,18.10
2018-06-02T02:29:09.359Z,18.10
2018-06-02T02:31:35.615Z,18.20
2018-06-02T02:34:01.929Z,18.10
2018-06-02T02:36:28.979Z,18.20
2018-06-02T02:38:55.985Z,18.20
2018-06-02T02:41:22.201Z,18.10
2018-06-02T02:43:48.502Z,18.20
2018-06-02T02:46:14.847Z,18.20
2018-06-02T02:48:41.801Z,18.20
2018-06-02T02:51:08.746Z,18.30
2018-06-02T02:53:35.802Z,18.30
2018-06-02T02:56:02.113Z,18.20
2018-06-02T02:58:28.412Z,18.40
2018-06-02T03:00:54.661Z,18.30
2018-06-02T03:03:20.963Z,18.30
2018-06-02T03:05:48.092Z,18.40
2018-06-02T03:08:14.356Z,18.40
2018-06-02T03:10:40.583Z,18.40
2018-06-02T03:13:07.656Z,18.40
2018-06-02T03:15:33.948Z,18.40
2018-06-02T03:18:00.894Z,18.40
2018-06-02T03:20:27.186Z,18.40
2018-06-02T03:22:53.461Z,18.40
2018-06-02T03:25:20.467Z,18.40
2018-06-02T03:27:46.758Z,18.40
2018-06-02T03:30:13.016Z,18.40
2018-06-02T03:32:40.024Z,18.40
2018-06-02T03:35:06.245Z,18.20
2018-06-02T03:37:32.503Z,18.40
2018-06-02T03:39:58.711Z,18.40
2018-06-02T03:42:24.940Z,18.40
2018-06-02T03:44:51.879Z,18.40
2018-06-02T03:47:18.138Z,18.40
2018-06-02T03:49:44.390Z,18.40
2018-06-02T03:52:10.633Z,18.40
2018-06-02T03:54:36.937Z,18.50
2018-06-02T03:57:03.220Z,18.50
2018-06-02T03:59:29.438Z,18.50
2018-06-02T04:01:56.420Z,18.50
2018-06-02T04:04:22.766Z,18.50
2018-06-02T04:06:49.023Z,18.50
2018-06-02T04:09:15.280Z,18.50
2018-06-02T04:11:42.310Z,18.50
2018-06-02T04:14:08.587Z,18.50
2018-06-02T04:16:34.875Z,18.60
2018-06-02T04:19:01.136Z,18.50
2018-06-02T04:21:27.412Z,18.50
2018-06-02T04:23:54.430Z,18.50
2018-06-02T04:26:21.540Z,18.50
2018-06-02T04:28:47.962Z,18.50
2018-06-02T04:31:14.292Z,18.50
2018-06-02T04:33:40.627Z,18.50
2018-06-02T04:36:06.948Z,18.50
2018-06-02T04:38:33.238Z,18.50
2018-06-02T04:40:59.504Z,18.60
2018-06-02T04:43:26.508Z,18.60
2018-06-02T04:45:52.742Z,18.60
2018-06-02T04:48:19.005Z,18.60
2018-06-02T04:50:45.254Z,18.70
2018-06-02T04:53:12.301Z,18.70
2018-06-02T04:55:38.547Z,18.60
2018-06-02T04:58:04.935Z,18.70
2018-06-02T05:00:32.186Z,18.70
2018-06-02T05:02:58.566Z,18.70
2018-06-02T05:05:24.871Z,18.70
2018-06-02T05:07:51.199Z,18.70
2018-06-02T05:10:18.321Z,18.70
2018-06-02T05:12:45.424Z,18.70
2018-06-02T05:15:11.807Z,18.70
2018-06-02T05:17:38.006Z,18.70
2018-06-02T05:20:04.864Z,18.70
2018-06-02T05:22:31.598Z,18.80
2018-06-02T05:24:57.900Z,18.70
2018-06-02T05:27:24.165Z,18.70
2018-06-02T05:29:51.519Z,18.70
2018-06-02T05:32:17.773Z,18.70
2018-06-02T05:34:44.010Z,18.70
2018-06-02T05:37:10.283Z,18.70
2018-06-02T05:39:37.294Z,18.70
2018-06-02T05:42:03.752Z,18.70
2018-06-02T05:44:30.139Z,18.80
2018-06-02T05:46:57.204Z,18.70
2018-06-02T05:49:24.193Z,18.70
2018-06-02T05:51:50.499Z,18.70
2018-06-02T05:54:16.714Z,18.70
2018-06-02T05:56:42.990Z,18.70
2018-06-02T05:59:09.267Z,18.70
2018-06-02T06:01:35.486Z,18.80
2018-06-02T06:04:02.533Z,18.80
2018-06-02T06:06:29.038Z,18.80
2018-06-02T06:08:55.319Z,18.80
2018-06-02T06:11:22.332Z,18.80
2018-06-02T06:13:48.568Z,18.80
2018-06-02T06:16:14.812Z,18.80
2018-06-02T06:18:41.076Z,18.80
2018-06-02T06:21:07.323Z,18.80
2018-06-02T06:23:33.579Z,18.80
2018-06-02T06:25:59.948Z,18.70
2018-06-02T06:28:26.259Z,18.80
2018-06-02T06:30:52.446Z,18.80
2018-06-02T06:33:18.795Z,18.80
2018-06-02T06:35:53.771Z,18.80
2018-06-02T06:38:20.012Z,18.80
2018-06-02T06:40:46.256Z,18.80
2018-06-02T06:43:12.537Z,18.70
2018-06-02T06:45:38.862Z,18.70
2018-06-02T06:48:05.953Z,18.70
2018-06-02T06:50:32.151Z,18.70
2018-06-02T06:52:58.495Z,18.70
2018-06-02T06:55:24.704Z,18.80
2018-06-02T06:57:50.998Z,18.80
2018-06-02T07:00:17.288Z,18.70
2018-06-02T07:02:43.525Z,18.70
2018-06-02T07:05:09.832Z,18.70
2018-06-02T07:07:36.155Z,18.70
2018-06-02T07:10:02.570Z,18.60
2018-06-02T07:12:29.726Z,18.60
2018-06-02T07:14:56.036Z,18.60
2018-06-02T07:17:23.163Z,18.60
2018-06-02T07:19:50.255Z,18.60
2018-06-02T07:22:16.526Z,18.50
2018-06-02T07:24:42.823Z,18.60
2018-06-02T07:27:09.124Z,18.60
2018-06-02T07:29:35.350Z,18.50
2018-06-02T07:32:01.758Z,18.60
2018-06-02T07:34:28.007Z,18.50
2018-06-02T07:36:54.405Z,18.50
2018-06-02T07:39:20.737Z,18.50
2018-06-02T07:41:47.519Z,18.50
2018-06-02T07:44:14.520Z,18.70
2018-06-02T07:46:40.974Z,18.70
2018-06-02T07:49:07.239Z,18.50
2018-06-02T07:51:33.597Z,18.80
2018-06-02T07:54:00.615Z,18.80
2018-06-02T07:56:26.939Z,18.80
2018-06-02T07:58:54.042Z,18.90
2018-06-02T08:01:20.387Z,18.80
2018-06-02T08:03:46.707Z,18.90
2018-06-02T08:06:12.954Z,18.90
2018-06-02T08:08:39.264Z,18.90
2018-06-02T08:11:06.206Z,18.80
2018-06-02T08:13:32.597Z,18.80
2018-06-02T08:15:58.971Z,18.80
2018-06-02T08:18:25.203Z,18.70
2018-06-02T08:20:52.262Z,18.60
2018-06-02T08:23:18.526Z,18.60
2018-06-02T08:25:44.897Z,18.60
2018-06-02T08:28:11.196Z,18.60
2018-06-02T08:30:37.471Z,18.60
2018-06-02T08:33:04.047Z,18.60
2018-06-02T08:35:30.493Z,18.70
2018-06-02T08:37:56.782Z,18.70
2018-06-02T08:40:23.939Z,18.90
2018-06-02T08:42:50.986Z,18.90
2018-06-02T08:45:18.112Z,18.80
2018-06-02T08:47:47.193Z,18.90
2018-06-02T08:50:14.258Z,18.90
2018-06-02T08:52:40.572Z,18.90
2018-06-02T08:55:07.808Z,19.00
2018-06-02T08:57:34.042Z,19.00
2018-06-02T09:00:01.339Z,19.20
2018-06-02T09:02:27.637Z,18.90
2018-06-02T09:04:53.907Z,19.00
2018-06-02T09:07:20.181Z,19.10
2018-06-02T09:09:46.675Z,19.10
2018-06-02T09:12:13.012Z,19.10
2018-06-02T09:14:39.359Z,19.20
2018-06-02T09:17:05.935Z,19.20
2018-06-02T09:19:34.046Z,19.40
2018-06-02T09:22:00.310Z,19.30
2018-06-02T09:24:26.557Z,19.50
2018-06-02T09:26:53.310Z,19.50
2018-06-02T09:29:21.059Z,19.60
2018-06-02T09:31:48.751Z,19.70
2018-06-02T09:34:15.343Z,19.70
2018-06-02T09:36:42.386Z,19.70
2018-06-02T09:39:09.593Z,19.80
2018-06-02T09:41:37.134Z,19.80
2018-06-02T09:44:03.875Z,19.80
2018-06-02T09:46:31.932Z,19.80
2018-06-02T09:48:58.406Z,19.80
2018-06-02T09:51:24.744Z,19.90
2018-06-02T09:53:51.017Z,19.90
2018-06-02T09:56:19.192Z,20.00
2018-06-02T09:58:46.471Z,20.10
2018-06-02T10:01:12.818Z,20.10
2018-06-02T10:03:39.794Z,20.20
2018-06-02T10:06:07.148Z,20.20
2018-06-02T10:08:34.914Z,20.30
2018-06-02T10:11:03.877Z,20.30
2018-06-02T10:13:30.355Z,20.30
2018-06-02T10:15:59.066Z,20.40
2018-06-02T10:18:26.431Z,20.40
2018-06-02T10:20:54.688Z,20.40
2018-06-02T10:23:21.780Z,20.50
2018-06-02T10:25:49.363Z,20.50
2018-06-02T10:28:17.100Z,20.50
2018-06-02T10:30:46.234Z,20.60
2018-06-02T10:33:12.445Z,20.60
2018-06-02T10:35:38.766Z,20.60
2018-06-02T10:38:07.235Z,20.60
2018-06-02T10:40:34.525Z,20.60
2018-06-02T10:43:02.016Z,20.60
2018-06-02T10:45:29.212Z,20.60
2018-06-02T10:47:56.339Z,20.70
2018-06-02T10:50:23.157Z,20.60
2018-06-02T10:52:50.165Z,20.60
2018-06-02T10:55:17.160Z,20.60
2018-06-02T10:57:44.480Z,20.60
2018-06-02T11:00:11.615Z,20.60
2018-06-02T11:02:40.294Z,20.60
2018-06-02T11:05:06.571Z,20.60
2018-06-02T11:07:33.721Z,20.70
2018-06-02T11:10:01.983Z,20.80
2018-06-02T11:12:28.396Z,20.70
2018-06-02T11:14:55.440Z,20.90
2018-06-02T11:17:22.355Z,20.90
2018-06-02T11:19:48.956Z,21.00
2018-06-02T11:22:15.883Z,21.00
2018-06-02T11:24:42.142Z,21.00
2018-06-02T11:27:09.421Z,21.00
2018-06-02T11:29:36.159Z,21.00
2018-06-02T11:32:03.864Z,21.00
2018-06-02T11:34:31.784Z,21.00
2018-06-02T11:36:59.650Z,21.00
2018-06-02T11:39:27.204Z,21.00
2018-06-02T11:41:55.144Z,21.10
2018-06-02T11:44:21.520Z,21.10
2018-06-02T11:46:51.712Z,21.10
2018-06-02T11:49:19.209Z,21.00
2018-06-02T11:51:45.952Z,21.00
2018-06-02T11:54:12.838Z,21.00
2018-06-02T11:56:40.878Z,21.00
2018-06-02T11:59:07.438Z,20.90
2018-06-02T12:01:34.818Z,21.00
2018-06-02T12:04:02.362Z,21.10
2018-06-02T12:06:29.043Z,21.20
2018-06-02T12:08:55.489Z,21.20
2018-06-02T12:11:22.708Z,21.20
2018-06-02T12:13:49.177Z,21.20
2018-06-02T12:16:16.163Z,21.20
2018-06-02T12:18:44.288Z,21.30
2018-06-02T12:21:10.583Z,21.20
2018-06-02T12:23:37.078Z,21.40
2018-06-02T12:26:05.053Z,21.50
2018-06-02T12:28:32.635Z,21.50
2018-06-02T12:30:58.948Z,21.70
2018-06-02T12:33:25.180Z,21.70
2018-06-02T12:35:52.203Z,21.90
2018-06-02T12:38:19.242Z,22.00
2018-06-02T12:40:45.773Z,22.00
2018-06-02T12:43:12.258Z,22.10
2018-06-02T12:45:40.128Z,22.10
2018-06-02T12:48:07.494Z,22.10
2018-06-02T12:50:34.842Z,22.10
2018-06-02T12:53:02.027Z,22.10
2018-06-02T12:55:29.102Z,22.00
2018-06-02T12:57:56.401Z,22.00
2018-06-02T13:00:24.782Z,21.90
2018-06-02T13:02:52.286Z,21.80
2018-06-02T13:05:18.509Z,21.80
2018-06-02T13:07:45.118Z,21.80
2018-06-02T13:10:12.670Z,21.70
2018-06-02T13:12:40.673Z,21.80
2018-06-02T13:15:07.094Z,21.70
2018-06-02T13:17:33.485Z,21.60
2018-06-02T13:20:00.159Z,21.70
2018-06-02T13:22:26.971Z,21.80
2018-06-02T13:24:53.445Z,21.80
2018-06-02T13:27:21.278Z,21.70
2018-06-02T13:29:47.515Z,21.70
2018-06-02T13:32:14.538Z,21.80
2018-06-02T13:34:42.813Z,21.50
2018-06-02T13:37:10.207Z,21.50
2018-06-02T13:39:36.820Z,21.40
2018-06-02T13:42:03.972Z,21.40
2018-06-02T13:44:31.136Z,21.40
2018-06-02T13:46:58.269Z,21.40
2018-06-02T13:49:24.680Z,21.40
2018-06-02T13:51:52.126Z,21.40
2018-06-02T13:54:19.343Z,21.30
2018-06-02T13:56:45.976Z,21.30
2018-06-02T13:59:12.239Z,21.30
2018-06-02T14:01:39.363Z,21.20
2018-06-02T14:04:06.720Z,21.20
2018-06-02T14:06:34.787Z,21.20
2018-06-02T14:09:01.563Z,21.20
2018-06-02T14:11:27.833Z,21.30
2018-06-02T14:13:54.790Z,21.30
2018-06-02T14:16:21.067Z,21.30
2018-06-02T14:18:47.386Z,21.30
2018-06-02T14:21:14.303Z,21.30
2018-06-02T14:23:41.649Z,21.30
2018-06-02T14:26:08.866Z,21.30
2018-06-02T14:28:35.203Z,21.30
2018-06-02T14:31:01.726Z,21.30
2018-06-02T14:33:28.482Z,21.30
2018-06-02T14:35:55.171Z,21.30
2018-06-02T14:38:21.418Z,21.30
2018-06-02T14:40:48.423Z,21.30
2018-06-02T14:43:14.875Z,21.30
2018-06-02T14:45:41.281Z,21.30
2018-06-02T14:48:08.582Z,21.30
2018-06-02T14:50:35.674Z,21.40
2018-06-02T14:53:03.789Z,21.40
2018-06-02T14:55:30.799Z,21.50
2018-06-02T14:57:57.063Z,21.50
2018-06-02T15:00:23.320Z,21.60
2018-06-02T15:02:50.386Z,21.60
2018-06-02T15:05:16.744Z,21.60
2018-06-02T15:07:43.743Z,21.70
2018-06-02T15:10:09.967Z,21.70
2018-06-02T15:12:36.246Z,21.80
2018-06-02T15:15:02.815Z,21.80
2018-06-02T15:17:29.184Z,21.80
2018-06-02T15:19:56.235Z,21.70
2018-06-02T15:22:23.412Z,21.80
2018-06-02T15:24:49.892Z,21.70
2018-06-02T15:27:16.115Z,21.70
2018-06-02T15:29:42.362Z,21.70
2018-06-02T15:32:08.655Z,22.10
2018-06-02T15:34:34.912Z,21.70
2018-06-02T15:37:01.152Z,21.60
2018-06-02T15:39:28.371Z,21.60
2018-06-02T15:41:54.666Z,21.60
2018-06-02T15:44:20.935Z,21.50
2018-06-02T15:46:47.174Z,21.40
2018-06-02T15:49:14.198Z,21.00
2018-06-02T15:51:40.418Z,21.00
2018-06-02T15:54:07.380Z,20.90
2018-06-02T15:56:33.641Z,20.90
2018-06-02T15:58:59.861Z,20.90
2018-06-02T16:01:26.402Z,21.00
2018-06-02T16:03:53.415Z,21.00
2018-06-02T16:06:19.822Z,20.90
2018-06-02T16:08:46.063Z,21.00
2018-06-02T16:11:12.377Z,21.00
2018-06-02T16:13:38.667Z,21.00
2018-06-02T16:16:05.615Z,21.10
2018-06-02T16:18:32.919Z,21.10
2018-06-02T16:20:59.166Z,21.10
2018-06-02T16:23:25.543Z,21.10
2018-06-02T16:25:52.539Z,21.10
2018-06-02T16:28:18.808Z,21.10
2018-06-02T16:30:45.824Z,21.20
2018-06-02T16:33:12.790Z,21.20
2018-06-02T16:35:39.040Z,21.20
2018-06-02T16:38:06.532Z,21.20
2018-06-02T16:40:32.890Z,21.10
2018-06-02T16:42:59.059Z,21.10
2018-06-02T16:45:25.347Z,21.20
2018-06-02T16:47:51.613Z,21.20
2018-06-02T16:50:17.854Z,21.20
2018-06-02T16:52:44.159Z,21.20
2018-06-02T16:55:10.395Z,21.20
2018-06-02T16:57:36.647Z,21.20
2018-06-02T17:00:03.028Z,21.20
2018-06-02T17:02:29.739Z,21.20
2018-06-02T17:04:56.044Z,21.20
2018-06-02T17:07:22.285Z,21.20
2018-06-02T17:09:49.574Z,21.20
2018-06-02T17:12:15.853Z,21.30
2018-06-02T17:14:42.091Z,21.30
2018-06-02T17:17:09.294Z,21.30
2018-06-02T17:19:35.556Z,21.30
2018-06-02T17:22:01.862Z,21.30
2018-06-02T17:24:28.382Z,21.30
2018-06-02T17:26:54.699Z,21.30
2018-06-02T17:29:20.904Z,21.30
2018-06-02T17:31:47.175Z,21.30
2018-06-02T17:34:13.415Z,21.30
2018-06-02T17:36:39.682Z,21.30
2018-06-02T17:39:05.943Z,21.30
2018-06-02T17:41:33.101Z,21.20
2018-06-02T17:44:00.072Z,21.20
2018-06-02T17:46:26.356Z,21.20
2018-06-02T17:48:52.653Z,21.20
2018-06-02T17:51:19.842Z,21.20
2018-06-02T17:53:46.098Z,21.20
2018-06-02T17:56:12.352Z,21.20
2018-06-02T17:58:38.625Z,21.20
2018-06-02T18:01:04.877Z,21.20
2018-06-02T18:03:31.166Z,21.20
2018-06-02T18:05:57.478Z,21.20
2018-06-02T18:08:23.769Z,21.20
2018-06-02T18:10:50.199Z,21.20
2018-06-02T18:13:16.541Z,21.20
2018-06-02T18:15:42.975Z,21.20
2018-06-02T18:18:09.417Z,21.20
2018-06-02T18:20:35.793Z,21.20
2018-06-02T18:23:02.072Z,21.20
2018-06-02T18:25:28.284Z,21.20
2018-06-02T18:27:55.270Z,21.20
2018-06-02T18:30:22.259Z,21.20
2018-06-02T18:32:48.557Z,21.20
2018-06-02T18:35:15.546Z,21.20
2018-06-02T18:37:41.749Z,21.10
2018-06-02T18:40:08.818Z,21.20
2018-06-02T18:42:35.283Z,21.10
2018-06-02T18:45:01.574Z,21.20
2018-06-02T18:47:27.833Z,21.20
2018-06-02T18:49:54.090Z,21.20
2018-06-02T18:52:20.408Z,21.10
2018-06-02T18:54:46.675Z,21.10
2018-06-02T18:57:13.766Z,21.10
2018-06-02T18:59:40.871Z,21.10
2018-06-02T19:02:07.150Z,21.10
2018-06-02T19:04:34.338Z,21.10
2018-06-02T19:07:00.830Z,21.10
2018-06-02T19:09:27.075Z,21.10
2018-06-02T19:11:53.378Z,21.10
2018-06-02T19:14:19.627Z,21.10
2018-06-02T19:16:45.934Z,21.10
2018-06-02T19:19:12.211Z,21.10
2018-06-02T19:21:39.300Z,21.00
2018-06-02T19:24:06.266Z,21.00
2018-06-02T19:26:33.326Z,21.00
2018-06-02T19:29:00.328Z,21.00
2018-06-02T19:31:26.559Z,20.90
2018-06-02T19:33:52.848Z,20.90
2018-06-02T19:36:19.155Z,21.00
2018-06-02T19:38:45.597Z,21.00
2018-06-02T19:41:11.864Z,20.90
2018-06-02T19:43:38.115Z,20.90
2018-06-02T19:46:05.229Z,20.90
2018-06-02T19:48:31.475Z,20.90
2018-06-02T19:50:57.745Z,20.90
2018-06-02T19:53:24.041Z,20.80
2018-06-02T19:55:50.340Z,20.80
2018-06-02T19:58:16.550Z,20.80
2018-06-02T20:00:42.788Z,20.80
2018-06-02T20:03:09.329Z,20.70
2018-06-02T20:05:35.581Z,20.80
2018-06-02T20:08:01.861Z,20.90
2018-06-02T20:10:28.237Z,20.70
2018-06-02T20:12:54.484Z,20.70
2018-06-02T20:15:21.481Z,20.60
2018-06-02T20:17:47.972Z,20.60
2018-06-02T20:20:14.247Z,20.60
2018-06-02T20:22:40.534Z,20.70
2018-06-02T20:25:06.834Z,20.50
2018-06-02T20:27:33.115Z,20.50
2018-06-02T20:29:59.435Z,20.50
2018-06-02T20:32:25.698Z,20.50
2018-06-02T20:34:52.215Z,20.50
2018-06-02T20:37:18.425Z,20.50
2018-06-02T20:39:44.654Z,20.50
2018-06-02T20:42:10.900Z,20.40
2018-06-02T20:44:37.171Z,20.30
2018-06-02T20:47:03.542Z,20.30
2018-06-02T20:49:30.522Z,20.30
2018-06-02T20:51:57.549Z,20.20
2018-06-02T20:54:23.779Z,20.30
2018-06-02T20:56:50.143Z,20.20
2018-06-02T20:59:16.412Z,20.20
2018-06-02T21:01:42.886Z,20.20
2018-06-02T21:04:09.163Z,20.10
2018-06-02T21:06:35.445Z,20.10
2018-06-02T21:09:01.679Z,20.00
2018-06-02T21:11:27.974Z,20.00
2018-06-02T21:13:54.184Z,19.90
2018-06-02T21:16:20.399Z,19.90
2018-06-02T21:18:46.639Z,19.90
2018-06-02T21:21:13.648Z,19.80
2018-06-02T21:23:40.708Z,19.80
2018-06-02T21:26:07.714Z,19.70
2018-06-02T21:28:33.938Z,19.70
2018-06-02T21:31:01.170Z,19.80
2018-06-02T21:33:27.486Z,19.30
2018-06-02T21:35:53.748Z,19.80
2018-06-02T21:38:20.077Z,19.70
2018-06-02T21:40:47.164Z,19.70
2018-06-02T21:43:14.125Z,19.70
2018-06-02T21:45:41.145Z,19.60
2018-06-02T21:48:07.459Z,19.60
2018-06-02T21:50:33.742Z,19.70
2018-06-02T21:53:00.025Z,19.70
2018-06-02T21:55:26.347Z,19.70
2018-06-02T21:57:53.319Z,19.60
2018-06-02T22:00:20.646Z,19.60
2018-06-02T22:02:46.933Z,19.60
2018-06-02T22:05:13.127Z,19.60
2018-06-02T22:07:39.393Z,19.70
2018-06-02T22:10:05.653Z,19.70
2018-06-02T22:12:31.934Z,19.60
2018-06-02T22:14:58.215Z,19.50
2018-06-02T22:17:24.491Z,19.50
2018-06-02T22:19:50.711Z,19.50
2018-06-02T22:22:17.009Z,19.40
2018-06-02T22:24:43.251Z,19.40
2018-06-02T22:27:09.682Z,19.30
2018-06-02T22:29:35.989Z,19.30
2018-06-02T22:32:03.085Z,19.30
2018-06-02T22:34:29.469Z,19.30
2018-06-02T22:36:55.686Z,19.30
2018-06-02T22:39:21.896Z,19.30
2018-06-02T22:41:48.154Z,19.20
2018-06-02T22:44:15.203Z,19.10
2018-06-02T22:46:41.460Z,19.10
2018-06-02T22:49:08.569Z,19.10
2018-06-02T22:51:47.787Z,19.10
2018-06-02T22:54:14.063Z,19.10
2018-06-02T22:56:41.040Z,18.90
2018-06-02T22:59:07.260Z,18.80
2018-06-02T23:01:33.540Z,18.90
2018-06-02T23:03:59.771Z,18.80
2018-06-02T23:06:26.075Z,18.90
2018-06-02T23:08:54.138Z,18.90
2018-06-02T23:11:20.351Z,18.90
2018-06-02T23:13:46.614Z,18.90
2018-06-02T23:16:12.898Z,19.00
2018-06-02T23:18:39.934Z,19.00
2018-06-02T23:21:06.913Z,19.00
2018-06-02T23:23:33.318Z,18.90
2018-06-02T23:25:59.579Z,19.00
2018-06-02T23:28:26.579Z,19.00
2018-06-02T23:30:52.943Z,19.00
2018-06-02T23:33:19.151Z,19.00
2018-06-02T23:35:45.393Z,19.10
2018-06-02T23:38:11.617Z,19.10
2018-06-02T23:40:37.842Z,19.10
2018-06-02T23:43:04.149Z,19.10
2018-06-02T23:45:30.283Z,19.10
2018-06-02T23:47:56.534Z,19.10
2018-06-02T23:50:23.550Z,19.10
2018-06-02T23:52:49.819Z,19.40
2018-06-02T23:55:16.046Z,19.10
2018-06-02T23:57:42.283Z,19.10
